sensor_id;sensor_type;location;lat;lon;timestamp;P1;durP1;ratioP1;P2;durP2;ratioP2
56720;SDS011;53183;47.412;18.884;2024-03-02T00:00:50;34.47;;;17.83;;
56720;SDS011;53183;47.412;18.884;2024-03-02T00:03:18;38.50;;;16.35;;
56720;SDS011;53183;47.412;18.884;2024-03-02T00:05:50;31.70;;;16.65;;
56720;SDS011;53183;47.412;18.884;2024-03-02T00:08:21;33.70;;;15.82;;
56720;SDS011;53183;47.412;18.884;2024-03-02T00:10:50;35.47;;;17.45;;
56720;SDS011;53183;47.412;18.884;2024-03-02T00:13:21;32.22;;;16.27;;
56720;SDS011;53183;47.412;18.884;2024-03-02T00:15:56;32.10;;;16.00;;
56720;SDS011;53183;47.412;18.884;2024-03-02T00:18:29;26.42;;;15.70;;
56720;SDS011;53183;47.412;18.884;2024-03-02T00:23:32;36.67;;;15.48;;
56720;SDS011;53183;47.412;18.884;2024-03-02T00:26:00;30.52;;;15.40;;
56720;SDS011;53183;47.412;18.884;2024-03-02T00:28:35;35.38;;;16.20;;
56720;SDS011;53183;47.412;18.884;2024-03-02T00:33:44;36.25;;;16.58;;
56720;SDS011;53183;47.412;18.884;2024-03-02T00:36:13;29.17;;;15.15;;
56720;SDS011;53183;47.412;18.884;2024-03-02T00:41:23;28.87;;;15.38;;
56720;SDS011;53183;47.412;18.884;2024-03-02T00:43:58;33.40;;;16.00;;
56720;SDS011;53183;47.412;18.884;2024-03-02T00:46:33;31.98;;;15.40;;
56720;SDS011;53183;47.412;18.884;2024-03-02T00:49:03;31.15;;;15.40;;
56720;SDS011;53183;47.412;18.884;2024-03-02T00:51:32;29.42;;;14.32;;
56720;SDS011;53183;47.412;18.884;2024-03-02T00:54:07;31.35;;;14.85;;
56720;SDS011;53183;47.412;18.884;2024-03-02T00:56:35;29.85;;;15.57;;
56720;SDS011;53183;47.412;18.884;2024-03-02T00:59:02;26.42;;;14.13;;
56720;SDS011;53183;47.412;18.884;2024-03-02T01:01:30;23.95;;;14.90;;
56720;SDS011;53183;47.412;18.884;2024-03-02T01:03:58;31.10;;;16.02;;
56720;SDS011;53183;47.412;18.884;2024-03-02T01:06:25;25.35;;;13.38;;
56720;SDS011;53183;47.412;18.884;2024-03-02T01:08:52;27.55;;;14.45;;
56720;SDS011;53183;47.412;18.884;2024-03-02T01:11:20;27.40;;;13.43;;
56720;SDS011;53183;47.412;18.884;2024-03-02T01:13:50;26.98;;;14.27;;
56720;SDS011;53183;47.412;18.884;2024-03-02T01:16:19;27.20;;;14.55;;
56720;SDS011;53183;47.412;18.884;2024-03-02T01:18:47;29.70;;;14.30;;
56720;SDS011;53183;47.412;18.884;2024-03-02T01:21:14;28.65;;;14.32;;
56720;SDS011;53183;47.412;18.884;2024-03-02T01:23:42;22.95;;;13.07;;
56720;SDS011;53183;47.412;18.884;2024-03-02T01:26:10;25.23;;;12.75;;
56720;SDS011;53183;47.412;18.884;2024-03-02T01:28:37;24.45;;;12.88;;
56720;SDS011;53183;47.412;18.884;2024-03-02T01:31:04;25.37;;;13.02;;
56720;SDS011;53183;47.412;18.884;2024-03-02T01:33:32;33.22;;;13.98;;
56720;SDS011;53183;47.412;18.884;2024-03-02T01:35:59;21.70;;;12.35;;
56720;SDS011;53183;47.412;18.884;2024-03-02T01:38:26;26.23;;;12.70;;
56720;SDS011;53183;47.412;18.884;2024-03-02T01:40:55;26.98;;;12.43;;
56720;SDS011;53183;47.412;18.884;2024-03-02T01:43:23;23.12;;;11.73;;
56720;SDS011;53183;47.412;18.884;2024-03-02T01:45:51;24.92;;;12.23;;
56720;SDS011;53183;47.412;18.884;2024-03-02T01:48:19;25.70;;;12.52;;
56720;SDS011;53183;47.412;18.884;2024-03-02T01:50:46;26.17;;;13.40;;
56720;SDS011;53183;47.412;18.884;2024-03-02T01:53:15;28.33;;;12.77;;
56720;SDS011;53183;47.412;18.884;2024-03-02T01:55:42;22.85;;;12.23;;
56720;SDS011;53183;47.412;18.884;2024-03-02T01:58:10;24.95;;;12.52;;
56720;SDS011;53183;47.412;18.884;2024-03-02T02:00:37;23.62;;;13.10;;
56720;SDS011;53183;47.412;18.884;2024-03-02T02:03:05;24.98;;;13.77;;
56720;SDS011;53183;47.412;18.884;2024-03-02T02:05:33;31.75;;;15.27;;
56720;SDS011;53183;47.412;18.884;2024-03-02T02:08:02;29.10;;;12.75;;
56720;SDS011;53183;47.412;18.884;2024-03-02T02:10:30;23.30;;;12.55;;
56720;SDS011;53183;47.412;18.884;2024-03-02T02:12:56;25.62;;;13.62;;
56720;SDS011;53183;47.412;18.884;2024-03-02T02:15:25;25.90;;;13.85;;
56720;SDS011;53183;47.412;18.884;2024-03-02T02:17:54;23.87;;;12.95;;
56720;SDS011;53183;47.412;18.884;2024-03-02T02:20:23;22.13;;;12.68;;
56720;SDS011;53183;47.412;18.884;2024-03-02T02:25:23;32.15;;;14.48;;
56720;SDS011;53183;47.412;18.884;2024-03-02T02:27:50;30.20;;;13.43;;
56720;SDS011;53183;47.412;18.884;2024-03-02T02:30:27;32.20;;;14.25;;
56720;SDS011;53183;47.412;18.884;2024-03-02T02:32:57;29.23;;;14.60;;
56720;SDS011;53183;47.412;18.884;2024-03-02T02:35:25;28.98;;;12.10;;
56720;SDS011;53183;47.412;18.884;2024-03-02T02:37:53;25.67;;;12.65;;
56720;SDS011;53183;47.412;18.884;2024-03-02T02:40:21;24.92;;;13.10;;
56720;SDS011;53183;47.412;18.884;2024-03-02T02:42:49;25.75;;;12.55;;
56720;SDS011;53183;47.412;18.884;2024-03-02T02:45:16;29.08;;;15.00;;
56720;SDS011;53183;47.412;18.884;2024-03-02T02:47:44;27.02;;;13.27;;
56720;SDS011;53183;47.412;18.884;2024-03-02T02:50:11;29.50;;;13.48;;
56720;SDS011;53183;47.412;18.884;2024-03-02T02:52:41;24.63;;;12.80;;
56720;SDS011;53183;47.412;18.884;2024-03-02T02:55:10;25.20;;;13.52;;
56720;SDS011;53183;47.412;18.884;2024-03-02T02:57:41;25.15;;;12.20;;
56720;SDS011;53183;47.412;18.884;2024-03-02T03:00:13;33.42;;;14.43;;
56720;SDS011;53183;47.412;18.884;2024-03-02T03:02:47;34.83;;;14.45;;
56720;SDS011;53183;47.412;18.884;2024-03-02T03:05:18;24.95;;;12.80;;
56720;SDS011;53183;47.412;18.884;2024-03-02T03:07:45;30.27;;;14.00;;
56720;SDS011;53183;47.412;18.884;2024-03-02T03:10:12;28.80;;;14.77;;
56720;SDS011;53183;47.412;18.884;2024-03-02T03:12:42;30.48;;;13.90;;
56720;SDS011;53183;47.412;18.884;2024-03-02T03:15:11;32.15;;;14.15;;
56720;SDS011;53183;47.412;18.884;2024-03-02T03:17:39;25.23;;;14.52;;
56720;SDS011;53183;47.412;18.884;2024-03-02T03:20:08;26.58;;;14.10;;
56720;SDS011;53183;47.412;18.884;2024-03-02T03:22:38;26.50;;;13.73;;
56720;SDS011;53183;47.412;18.884;2024-03-02T03:25:06;28.95;;;14.10;;
56720;SDS011;53183;47.412;18.884;2024-03-02T03:27:35;26.23;;;13.98;;
56720;SDS011;53183;47.412;18.884;2024-03-02T03:30:03;24.37;;;14.15;;
56720;SDS011;53183;47.412;18.884;2024-03-02T03:32:34;28.87;;;14.45;;
56720;SDS011;53183;47.412;18.884;2024-03-02T03:35:01;26.23;;;14.50;;
56720;SDS011;53183;47.412;18.884;2024-03-02T03:37:29;28.00;;;14.35;;
56720;SDS011;53183;47.412;18.884;2024-03-02T03:40:04;32.55;;;15.00;;
56720;SDS011;53183;47.412;18.884;2024-03-02T03:42:38;27.20;;;13.40;;
56720;SDS011;53183;47.412;18.884;2024-03-02T03:45:06;27.05;;;14.45;;
56720;SDS011;53183;47.412;18.884;2024-03-02T03:47:34;28.08;;;13.60;;
56720;SDS011;53183;47.412;18.884;2024-03-02T03:50:01;25.67;;;14.27;;
56720;SDS011;53183;47.412;18.884;2024-03-02T03:52:31;31.52;;;14.95;;
56720;SDS011;53183;47.412;18.884;2024-03-02T03:54:58;32.72;;;15.40;;
56720;SDS011;53183;47.412;18.884;2024-03-02T03:57:26;29.92;;;14.32;;
56720;SDS011;53183;47.412;18.884;2024-03-02T03:59:54;28.60;;;14.77;;
56720;SDS011;53183;47.412;18.884;2024-03-02T04:02:21;30.75;;;15.60;;
56720;SDS011;53183;47.412;18.884;2024-03-02T04:04:48;29.48;;;15.60;;
56720;SDS011;53183;47.412;18.884;2024-03-02T04:07:15;34.45;;;16.37;;
56720;SDS011;53183;47.412;18.884;2024-03-02T04:09:42;29.75;;;15.88;;
56720;SDS011;53183;47.412;18.884;2024-03-02T04:12:09;28.05;;;14.18;;
56720;SDS011;53183;47.412;18.884;2024-03-02T04:14:36;26.37;;;15.93;;
56720;SDS011;53183;47.412;18.884;2024-03-02T04:17:07;24.10;;;13.68;;
56720;SDS011;53183;47.412;18.884;2024-03-02T04:19:34;25.62;;;13.52;;
56720;SDS011;53183;47.412;18.884;2024-03-02T04:22:01;25.48;;;13.80;;
56720;SDS011;53183;47.412;18.884;2024-03-02T04:24:42;31.85;;;15.60;;
56720;SDS011;53183;47.412;18.884;2024-03-02T04:27:09;29.55;;;16.17;;
56720;SDS011;53183;47.412;18.884;2024-03-02T04:29:36;31.95;;;14.65;;
56720;SDS011;53183;47.412;18.884;2024-03-02T04:32:03;32.35;;;15.52;;
56720;SDS011;53183;47.412;18.884;2024-03-02T04:34:31;31.08;;;16.90;;
56720;SDS011;53183;47.412;18.884;2024-03-02T04:36:58;36.78;;;14.43;;
56720;SDS011;53183;47.412;18.884;2024-03-02T04:39:25;25.80;;;14.45;;
56720;SDS011;53183;47.412;18.884;2024-03-02T04:41:53;29.25;;;15.52;;
56720;SDS011;53183;47.412;18.884;2024-03-02T04:44:19;30.95;;;15.05;;
56720;SDS011;53183;47.412;18.884;2024-03-02T04:46:47;34.58;;;17.02;;
56720;SDS011;53183;47.412;18.884;2024-03-02T04:49:14;32.33;;;15.70;;
56720;SDS011;53183;47.412;18.884;2024-03-02T04:51:41;26.62;;;15.63;;
56720;SDS011;53183;47.412;18.884;2024-03-02T04:54:08;28.92;;;15.38;;
56720;SDS011;53183;47.412;18.884;2024-03-02T04:56:37;35.10;;;15.85;;
56720;SDS011;53183;47.412;18.884;2024-03-02T04:59:17;30.37;;;15.38;;
56720;SDS011;53183;47.412;18.884;2024-03-02T05:01:45;28.83;;;15.20;;
56720;SDS011;53183;47.412;18.884;2024-03-02T05:04:14;33.38;;;16.85;;
56720;SDS011;53183;47.412;18.884;2024-03-02T05:06:41;32.85;;;17.45;;
56720;SDS011;53183;47.412;18.884;2024-03-02T05:09:09;28.62;;;15.48;;
56720;SDS011;53183;47.412;18.884;2024-03-02T05:11:36;28.23;;;15.40;;
56720;SDS011;53183;47.412;18.884;2024-03-02T05:14:04;29.30;;;16.00;;
56720;SDS011;53183;47.412;18.884;2024-03-02T05:16:35;28.67;;;14.85;;
56720;SDS011;53183;47.412;18.884;2024-03-02T05:19:06;30.02;;;15.63;;
56720;SDS011;53183;47.412;18.884;2024-03-02T05:21:34;32.08;;;16.12;;
56720;SDS011;53183;47.412;18.884;2024-03-02T05:24:02;34.20;;;16.90;;
56720;SDS011;53183;47.412;18.884;2024-03-02T05:26:29;29.80;;;15.95;;
56720;SDS011;53183;47.412;18.884;2024-03-02T05:28:57;32.75;;;16.67;;
56720;SDS011;53183;47.412;18.884;2024-03-02T05:31:25;32.38;;;16.15;;
56720;SDS011;53183;47.412;18.884;2024-03-02T05:33:53;31.92;;;16.15;;
56720;SDS011;53183;47.412;18.884;2024-03-02T05:36:24;38.80;;;16.98;;
56720;SDS011;53183;47.412;18.884;2024-03-02T05:38:52;34.05;;;16.85;;
56720;SDS011;53183;47.412;18.884;2024-03-02T05:41:20;33.30;;;16.58;;
56720;SDS011;53183;47.412;18.884;2024-03-02T05:43:48;34.08;;;17.12;;
56720;SDS011;53183;47.412;18.884;2024-03-02T05:46:16;34.30;;;16.87;;
56720;SDS011;53183;47.412;18.884;2024-03-02T05:48:43;33.60;;;16.75;;
56720;SDS011;53183;47.412;18.884;2024-03-02T05:51:10;35.00;;;16.80;;
56720;SDS011;53183;47.412;18.884;2024-03-02T05:53:37;30.95;;;16.55;;
56720;SDS011;53183;47.412;18.884;2024-03-02T05:56:05;32.58;;;16.87;;
56720;SDS011;53183;47.412;18.884;2024-03-02T05:58:33;33.75;;;17.08;;
56720;SDS011;53183;47.412;18.884;2024-03-02T06:01:16;31.87;;;16.52;;
56720;SDS011;53183;47.412;18.884;2024-03-02T06:03:45;33.97;;;17.23;;
56720;SDS011;53183;47.412;18.884;2024-03-02T06:06:13;35.45;;;18.02;;
56720;SDS011;53183;47.412;18.884;2024-03-02T06:08:40;29.67;;;16.62;;
56720;SDS011;53183;47.412;18.884;2024-03-02T06:11:08;34.20;;;17.92;;
56720;SDS011;53183;47.412;18.884;2024-03-02T06:13:36;38.83;;;17.67;;
56720;SDS011;53183;47.412;18.884;2024-03-02T06:16:03;33.63;;;17.62;;
56720;SDS011;53183;47.412;18.884;2024-03-02T06:18:32;34.70;;;16.12;;
56720;SDS011;53183;47.412;18.884;2024-03-02T06:21:00;36.10;;;18.45;;
56720;SDS011;53183;47.412;18.884;2024-03-02T06:23:31;37.88;;;17.00;;
56720;SDS011;53183;47.412;18.884;2024-03-02T06:26:06;32.45;;;15.38;;
56720;SDS011;53183;47.412;18.884;2024-03-02T06:28:33;31.30;;;16.15;;
56720;SDS011;53183;47.412;18.884;2024-03-02T06:31:01;37.10;;;17.10;;
56720;SDS011;53183;47.412;18.884;2024-03-02T06:33:29;35.97;;;16.60;;
56720;SDS011;53183;47.412;18.884;2024-03-02T06:35:56;34.80;;;17.27;;
56720;SDS011;53183;47.412;18.884;2024-03-02T06:38:24;33.83;;;16.55;;
56720;SDS011;53183;47.412;18.884;2024-03-02T06:40:51;30.75;;;16.62;;
56720;SDS011;53183;47.412;18.884;2024-03-02T06:43:18;33.35;;;17.05;;
56720;SDS011;53183;47.412;18.884;2024-03-02T06:45:50;32.88;;;16.50;;
56720;SDS011;53183;47.412;18.884;2024-03-02T06:48:17;30.05;;;16.80;;
56720;SDS011;53183;47.412;18.884;2024-03-02T06:50:47;37.28;;;16.87;;
56720;SDS011;53183;47.412;18.884;2024-03-02T06:53:17;35.35;;;16.83;;
56720;SDS011;53183;47.412;18.884;2024-03-02T06:55:44;33.35;;;16.85;;
56720;SDS011;53183;47.412;18.884;2024-03-02T06:58:14;34.50;;;17.20;;
56720;SDS011;53183;47.412;18.884;2024-03-02T07:00:42;37.60;;;18.67;;
56720;SDS011;53183;47.412;18.884;2024-03-02T07:03:10;37.72;;;17.77;;
56720;SDS011;53183;47.412;18.884;2024-03-02T07:05:39;34.55;;;17.00;;
56720;SDS011;53183;47.412;18.884;2024-03-02T07:08:06;33.40;;;17.77;;
56720;SDS011;53183;47.412;18.884;2024-03-02T07:10:33;43.72;;;18.48;;
56720;SDS011;53183;47.412;18.884;2024-03-02T07:13:00;32.25;;;16.52;;
56720;SDS011;53183;47.412;18.884;2024-03-02T07:15:28;31.33;;;17.67;;
56720;SDS011;53183;47.412;18.884;2024-03-02T07:18:10;32.92;;;16.85;;
56720;SDS011;53183;47.412;18.884;2024-03-02T07:20:38;36.22;;;18.33;;
56720;SDS011;53183;47.412;18.884;2024-03-02T07:23:14;32.92;;;17.90;;
56720;SDS011;53183;47.412;18.884;2024-03-02T07:25:42;37.28;;;18.70;;
56720;SDS011;53183;47.412;18.884;2024-03-02T07:28:13;35.35;;;18.05;;
56720;SDS011;53183;47.412;18.884;2024-03-02T07:30:41;36.55;;;17.37;;
56720;SDS011;53183;47.412;18.884;2024-03-02T07:33:08;36.13;;;17.62;;
56720;SDS011;53183;47.412;18.884;2024-03-02T07:35:35;33.70;;;17.33;;
56720;SDS011;53183;47.412;18.884;2024-03-02T07:38:02;43.80;;;18.25;;
56720;SDS011;53183;47.412;18.884;2024-03-02T07:40:30;33.42;;;17.77;;
56720;SDS011;53183;47.412;18.884;2024-03-02T07:42:57;33.47;;;18.75;;
56720;SDS011;53183;47.412;18.884;2024-03-02T07:45:28;31.92;;;17.40;;
56720;SDS011;53183;47.412;18.884;2024-03-02T07:47:55;34.92;;;16.80;;
56720;SDS011;53183;47.412;18.884;2024-03-02T07:50:23;38.28;;;19.55;;
56720;SDS011;53183;47.412;18.884;2024-03-02T07:52:58;35.25;;;17.70;;
56720;SDS011;53183;47.412;18.884;2024-03-02T07:55:45;30.55;;;17.92;;
56720;SDS011;53183;47.412;18.884;2024-03-02T07:58:12;29.12;;;17.60;;
56720;SDS011;53183;47.412;18.884;2024-03-02T08:00:40;34.10;;;17.67;;
56720;SDS011;53183;47.412;18.884;2024-03-02T08:03:11;35.58;;;18.27;;
56720;SDS011;53183;47.412;18.884;2024-03-02T08:05:39;34.20;;;18.42;;
56720;SDS011;53183;47.412;18.884;2024-03-02T08:08:07;34.80;;;17.20;;
56720;SDS011;53183;47.412;18.884;2024-03-02T08:10:35;31.90;;;17.42;;
56720;SDS011;53183;47.412;18.884;2024-03-02T08:13:04;32.47;;;17.62;;
56720;SDS011;53183;47.412;18.884;2024-03-02T08:15:31;30.25;;;16.85;;
56720;SDS011;53183;47.412;18.884;2024-03-02T08:17:59;30.42;;;16.48;;
56720;SDS011;53183;47.412;18.884;2024-03-02T08:20:27;31.90;;;16.30;;
56720;SDS011;53183;47.412;18.884;2024-03-02T08:22:56;32.65;;;17.92;;
56720;SDS011;53183;47.412;18.884;2024-03-02T08:25:23;30.12;;;16.55;;
56720;SDS011;53183;47.412;18.884;2024-03-02T08:27:51;34.15;;;18.00;;
56720;SDS011;53183;47.412;18.884;2024-03-02T08:30:19;35.58;;;17.10;;
56720;SDS011;53183;47.412;18.884;2024-03-02T08:32:47;34.75;;;17.25;;
56720;SDS011;53183;47.412;18.884;2024-03-02T08:35:14;40.95;;;17.87;;
56720;SDS011;53183;47.412;18.884;2024-03-02T08:37:43;35.42;;;18.73;;
56720;SDS011;53183;47.412;18.884;2024-03-02T08:40:15;31.77;;;17.55;;
56720;SDS011;53183;47.412;18.884;2024-03-02T08:42:46;33.85;;;18.40;;
56720;SDS011;53183;47.412;18.884;2024-03-02T08:45:14;44.15;;;17.83;;
56720;SDS011;53183;47.412;18.884;2024-03-02T08:47:41;32.38;;;15.80;;
56720;SDS011;53183;47.412;18.884;2024-03-02T08:50:09;32.88;;;17.62;;
56720;SDS011;53183;47.412;18.884;2024-03-02T08:52:39;35.92;;;17.95;;
56720;SDS011;53183;47.412;18.884;2024-03-02T08:55:07;32.13;;;17.60;;
56720;SDS011;53183;47.412;18.884;2024-03-02T08:57:38;33.78;;;17.33;;
56720;SDS011;53183;47.412;18.884;2024-03-02T09:00:05;31.65;;;17.58;;
56720;SDS011;53183;47.412;18.884;2024-03-02T09:02:34;29.77;;;17.25;;
56720;SDS011;53183;47.412;18.884;2024-03-02T09:05:02;31.95;;;18.08;;
56720;SDS011;53183;47.412;18.884;2024-03-02T09:07:32;27.50;;;16.15;;
56720;SDS011;53183;47.412;18.884;2024-03-02T09:09:59;32.05;;;16.83;;
56720;SDS011;53183;47.412;18.884;2024-03-02T09:12:27;32.42;;;16.27;;
56720;SDS011;53183;47.412;18.884;2024-03-02T09:14:54;30.88;;;16.85;;
56720;SDS011;53183;47.412;18.884;2024-03-02T09:17:24;30.08;;;17.10;;
56720;SDS011;53183;47.412;18.884;2024-03-02T09:19:51;34.38;;;17.00;;
56720;SDS011;53183;47.412;18.884;2024-03-02T09:22:19;28.92;;;16.15;;
56720;SDS011;53183;47.412;18.884;2024-03-02T09:24:46;26.37;;;15.23;;
56720;SDS011;53183;47.412;18.884;2024-03-02T09:27:14;31.80;;;17.37;;
56720;SDS011;53183;47.412;18.884;2024-03-02T09:29:43;28.35;;;15.48;;
56720;SDS011;53183;47.412;18.884;2024-03-02T09:32:12;28.95;;;15.20;;
56720;SDS011;53183;47.412;18.884;2024-03-02T09:34:42;29.27;;;15.40;;
56720;SDS011;53183;47.412;18.884;2024-03-02T09:37:10;26.67;;;14.77;;
56720;SDS011;53183;47.412;18.884;2024-03-02T09:39:37;30.15;;;16.00;;
56720;SDS011;53183;47.412;18.884;2024-03-02T09:42:05;26.50;;;14.68;;
56720;SDS011;53183;47.412;18.884;2024-03-02T09:44:33;28.42;;;15.32;;
56720;SDS011;53183;47.412;18.884;2024-03-02T09:47:06;22.98;;;13.45;;
56720;SDS011;53183;47.412;18.884;2024-03-02T09:49:34;25.80;;;14.98;;
56720;SDS011;53183;47.412;18.884;2024-03-02T09:52:04;22.98;;;12.73;;
56720;SDS011;53183;47.412;18.884;2024-03-02T09:54:32;23.00;;;13.80;;
56720;SDS011;53183;47.412;18.884;2024-03-02T09:57:00;29.83;;;15.23;;
56720;SDS011;53183;47.412;18.884;2024-03-02T09:59:28;23.75;;;14.30;;
56720;SDS011;53183;47.412;18.884;2024-03-02T10:01:56;25.15;;;15.35;;
56720;SDS011;53183;47.412;18.884;2024-03-02T10:04:31;25.30;;;15.02;;
56720;SDS011;53183;47.412;18.884;2024-03-02T10:09:44;25.88;;;13.27;;
56720;SDS011;53183;47.412;18.884;2024-03-02T10:12:13;31.95;;;14.23;;
56720;SDS011;53183;47.412;18.884;2024-03-02T10:14:42;28.42;;;13.27;;
56720;SDS011;53183;47.412;18.884;2024-03-02T10:17:13;25.23;;;13.68;;
56720;SDS011;53183;47.412;18.884;2024-03-02T10:19:42;27.58;;;14.20;;
56720;SDS011;53183;47.412;18.884;2024-03-02T10:22:10;24.00;;;13.05;;
56720;SDS011;53183;47.412;18.884;2024-03-02T10:24:38;31.80;;;14.95;;
56720;SDS011;53183;47.412;18.884;2024-03-02T10:27:19;30.88;;;14.43;;
56720;SDS011;53183;47.412;18.884;2024-03-02T10:29:50;25.02;;;14.25;;
56720;SDS011;53183;47.412;18.884;2024-03-02T10:32:18;22.00;;;12.73;;
56720;SDS011;53183;47.412;18.884;2024-03-02T10:34:45;19.55;;;12.23;;
56720;SDS011;53183;47.412;18.884;2024-03-02T10:37:14;19.20;;;11.82;;
56720;SDS011;53183;47.412;18.884;2024-03-02T10:39:42;20.37;;;11.12;;
56720;SDS011;53183;47.412;18.884;2024-03-02T10:42:12;24.08;;;13.55;;
56720;SDS011;53183;47.412;18.884;2024-03-02T10:44:43;19.30;;;11.95;;
56720;SDS011;53183;47.412;18.884;2024-03-02T10:47:11;20.37;;;11.57;;
56720;SDS011;53183;47.412;18.884;2024-03-02T10:49:39;27.73;;;11.70;;
56720;SDS011;53183;47.412;18.884;2024-03-02T10:52:09;22.80;;;13.40;;
56720;SDS011;53183;47.412;18.884;2024-03-02T10:54:36;20.00;;;11.98;;
56720;SDS011;53183;47.412;18.884;2024-03-02T10:57:07;19.35;;;10.85;;
56720;SDS011;53183;47.412;18.884;2024-03-02T10:59:37;15.10;;;9.20;;
56720;SDS011;53183;47.412;18.884;2024-03-02T11:02:21;16.55;;;10.00;;
56720;SDS011;53183;47.412;18.884;2024-03-02T11:04:51;16.25;;;10.00;;
56720;SDS011;53183;47.412;18.884;2024-03-02T11:07:31;19.60;;;11.15;;
56720;SDS011;53183;47.412;18.884;2024-03-02T11:10:00;19.25;;;11.55;;
56720;SDS011;53183;47.412;18.884;2024-03-02T11:12:39;18.50;;;11.40;;
56720;SDS011;53183;47.412;18.884;2024-03-02T11:15:17;17.92;;;11.20;;
56720;SDS011;53183;47.412;18.884;2024-03-02T11:17:47;14.60;;;9.10;;
56720;SDS011;53183;47.412;18.884;2024-03-02T11:20:16;14.75;;;9.68;;
56720;SDS011;53183;47.412;18.884;2024-03-02T11:22:44;16.55;;;9.35;;
56720;SDS011;53183;47.412;18.884;2024-03-02T11:25:23;15.25;;;10.02;;
56720;SDS011;53183;47.412;18.884;2024-03-02T11:32:59;17.30;;;10.05;;
56720;SDS011;53183;47.412;18.884;2024-03-02T11:35:41;14.90;;;9.15;;
56720;SDS011;53183;47.412;18.884;2024-03-02T11:38:10;14.85;;;9.65;;
56720;SDS011;53183;47.412;18.884;2024-03-02T11:40:40;14.60;;;9.02;;
56720;SDS011;53183;47.412;18.884;2024-03-02T11:43:09;13.85;;;9.15;;
56720;SDS011;53183;47.412;18.884;2024-03-02T11:45:38;13.27;;;9.35;;
56720;SDS011;53183;47.412;18.884;2024-03-02T11:48:15;14.63;;;8.10;;
56720;SDS011;53183;47.412;18.884;2024-03-02T11:50:47;13.52;;;9.40;;
56720;SDS011;53183;47.412;18.884;2024-03-02T11:53:19;13.02;;;8.60;;
56720;SDS011;53183;47.412;18.884;2024-03-02T11:55:47;18.12;;;10.63;;
56720;SDS011;53183;47.412;18.884;2024-03-02T11:58:17;18.40;;;9.27;;
56720;SDS011;53183;47.412;18.884;2024-03-02T12:00:45;16.12;;;9.52;;
56720;SDS011;53183;47.412;18.884;2024-03-02T12:03:14;13.52;;;7.97;;
56720;SDS011;53183;47.412;18.884;2024-03-02T12:05:42;14.52;;;8.05;;
56720;SDS011;53183;47.412;18.884;2024-03-02T12:08:11;20.48;;;10.52;;
56720;SDS011;53183;47.412;18.884;2024-03-02T12:10:39;14.30;;;8.50;;
56720;SDS011;53183;47.412;18.884;2024-03-02T12:13:07;24.20;;;11.45;;
56720;SDS011;53183;47.412;18.884;2024-03-02T12:15:37;25.35;;;12.57;;
56720;SDS011;53183;47.412;18.884;2024-03-02T12:18:05;15.25;;;9.18;;
56720;SDS011;53183;47.412;18.884;2024-03-02T12:20:34;15.82;;;8.63;;
56720;SDS011;53183;47.412;18.884;2024-03-02T12:23:06;13.30;;;7.15;;
56720;SDS011;53183;47.412;18.884;2024-03-02T12:25:35;12.15;;;7.80;;
56720;SDS011;53183;47.412;18.884;2024-03-02T12:28:04;11.93;;;7.05;;
56720;SDS011;53183;47.412;18.884;2024-03-02T12:30:32;18.48;;;10.52;;
56720;SDS011;53183;47.412;18.884;2024-03-02T12:33:03;13.60;;;8.30;;
56720;SDS011;53183;47.412;18.884;2024-03-02T12:35:33;8.70;;;6.53;;
56720;SDS011;53183;47.412;18.884;2024-03-02T12:38:00;11.45;;;7.60;;
56720;SDS011;53183;47.412;18.884;2024-03-02T12:40:35;21.67;;;13.18;;
56720;SDS011;53183;47.412;18.884;2024-03-02T12:43:05;10.18;;;6.70;;
56720;SDS011;53183;47.412;18.884;2024-03-02T12:45:37;15.57;;;9.55;;
56720;SDS011;53183;47.412;18.884;2024-03-02T12:48:04;13.75;;;8.45;;
56720;SDS011;53183;47.412;18.884;2024-03-02T12:50:33;29.60;;;16.92;;
56720;SDS011;53183;47.412;18.884;2024-03-02T12:53:01;21.98;;;13.25;;
56720;SDS011;53183;47.412;18.884;2024-03-02T12:55:28;15.85;;;9.43;;
56720;SDS011;53183;47.412;18.884;2024-03-02T12:57:56;15.35;;;8.98;;
56720;SDS011;53183;47.412;18.884;2024-03-02T13:00:26;11.98;;;8.13;;
56720;SDS011;53183;47.412;18.884;2024-03-02T13:02:53;12.82;;;8.95;;
56720;SDS011;53183;47.412;18.884;2024-03-02T13:05:20;19.27;;;9.93;;
56720;SDS011;53183;47.412;18.884;2024-03-02T13:07:49;16.60;;;8.98;;
56720;SDS011;53183;47.412;18.884;2024-03-02T13:10:17;13.90;;;9.40;;
56720;SDS011;53183;47.412;18.884;2024-03-02T13:12:45;17.65;;;8.88;;
56720;SDS011;53183;47.412;18.884;2024-03-02T13:15:13;13.70;;;9.20;;
56720;SDS011;53183;47.412;18.884;2024-03-02T13:17:46;16.80;;;10.55;;
56720;SDS011;53183;47.412;18.884;2024-03-02T13:20:14;18.10;;;10.07;;
56720;SDS011;53183;47.412;18.884;2024-03-02T13:22:41;17.37;;;9.57;;
56720;SDS011;53183;47.412;18.884;2024-03-02T13:25:09;16.65;;;9.60;;
56720;SDS011;53183;47.412;18.884;2024-03-02T13:27:38;16.62;;;11.12;;
56720;SDS011;53183;47.412;18.884;2024-03-02T13:30:08;18.75;;;10.52;;
56720;SDS011;53183;47.412;18.884;2024-03-02T13:32:41;24.50;;;11.90;;
56720;SDS011;53183;47.412;18.884;2024-03-02T13:35:08;20.20;;;11.18;;
56720;SDS011;53183;47.412;18.884;2024-03-02T13:37:38;26.00;;;12.20;;
56720;SDS011;53183;47.412;18.884;2024-03-02T13:40:06;17.05;;;11.57;;
56720;SDS011;53183;47.412;18.884;2024-03-02T13:42:40;19.90;;;11.63;;
56720;SDS011;53183;47.412;18.884;2024-03-02T13:45:07;19.30;;;11.07;;
56720;SDS011;53183;47.412;18.884;2024-03-02T13:47:35;20.33;;;11.90;;
56720;SDS011;53183;47.412;18.884;2024-03-02T13:50:02;22.85;;;12.07;;
56720;SDS011;53183;47.412;18.884;2024-03-02T13:52:31;21.45;;;12.25;;
56720;SDS011;53183;47.412;18.884;2024-03-02T13:54:59;19.75;;;11.27;;
56720;SDS011;53183;47.412;18.884;2024-03-02T13:57:26;25.83;;;12.15;;
56720;SDS011;53183;47.412;18.884;2024-03-02T13:59:53;22.98;;;12.35;;
56720;SDS011;53183;47.412;18.884;2024-03-02T14:02:23;27.95;;;12.85;;
56720;SDS011;53183;47.412;18.884;2024-03-02T14:04:51;23.80;;;12.57;;
56720;SDS011;53183;47.412;18.884;2024-03-02T14:07:18;23.12;;;13.52;;
56720;SDS011;53183;47.412;18.884;2024-03-02T14:09:46;28.27;;;14.07;;
56720;SDS011;53183;47.412;18.884;2024-03-02T14:12:14;28.23;;;14.02;;
56720;SDS011;53183;47.412;18.884;2024-03-02T14:14:41;26.40;;;13.85;;
56720;SDS011;53183;47.412;18.884;2024-03-02T14:17:08;20.95;;;12.27;;
56720;SDS011;53183;47.412;18.884;2024-03-02T14:19:41;25.10;;;12.73;;
56720;SDS011;53183;47.412;18.884;2024-03-02T14:22:11;25.88;;;12.63;;
56720;SDS011;53183;47.412;18.884;2024-03-02T14:24:41;27.05;;;13.93;;
56720;SDS011;53183;47.412;18.884;2024-03-02T14:27:11;30.40;;;14.87;;
56720;SDS011;53183;47.412;18.884;2024-03-02T14:30:00;28.12;;;14.05;;
56720;SDS011;53183;47.412;18.884;2024-03-02T14:32:28;31.92;;;14.52;;
56720;SDS011;53183;47.412;18.884;2024-03-02T14:34:55;29.83;;;14.50;;
56720;SDS011;53183;47.412;18.884;2024-03-02T14:37:22;33.17;;;15.05;;
56720;SDS011;53183;47.412;18.884;2024-03-02T14:39:49;32.65;;;16.33;;